Terminal Aerodrome Forecast
Issued by NWS Wilmington, OH

Home | Current Version | Previous Version | Text Only | Print | Product List | Glossary On
Versions: 1 2 3 4 5 6 7 8 9 10 11 12 13 14 15 16 17
972
FTUS41 KILN 191132
TAFDAY
TAF
KDAY 191132Z 1912/2012 21012KT P6SM SKC
     FM191500 22015G20KT P6SM SCT250
     FM192300 22014KT P6SM SCT250=

USA.gov is the U.S. government's official web portal to all federal, state and local government web resources and services.